sensor_id;sensor_type;location;lat;lon;timestamp;temperature;humidity
21193;DHT22;10754;51.106;7.164;2023-01-10T00:00:23;10.20;1.00
21193;DHT22;10754;51.106;7.164;2023-01-10T00:02:49;10.30;1.00
21193;DHT22;10754;51.106;7.164;2023-01-10T00:05:15;10.20;1.00
21193;DHT22;10754;51.106;7.164;2023-01-10T00:07:41;10.30;1.00
21193;DHT22;10754;51.106;7.164;2023-01-10T00:10:07;10.40;1.00
21193;DHT22;10754;51.106;7.164;2023-01-10T00:12:33;10.30;1.00
21193;DHT22;10754;51.106;7.164;2023-01-10T00:15:17;10.20;1.00
21193;DHT22;10754;51.106;7.164;2023-01-10T00:17:43;10.30;1.00
21193;DHT22;10754;51.106;7.164;2023-01-10T00:20:09;10.30;1.00
21193;DHT22;10754;51.106;7.164;2023-01-10T00:22:35;10.30;1.00
21193;DHT22;10754;51.106;7.164;2023-01-10T00:25:00;10.20;1.00
21193;DHT22;10754;51.106;7.164;2023-01-10T00:27:26;10.20;1.00
21193;DHT22;10754;51.106;7.164;2023-01-10T00:29:51;10.20;1.00
21193;DHT22;10754;51.106;7.164;2023-01-10T00:32:18;10.00;1.00
21193;DHT22;10754;51.106;7.164;2023-01-10T00:34:44;10.00;1.00
21193;DHT22;10754;51.106;7.164;2023-01-10T00:37:09;10.20;1.00
21193;DHT22;10754;51.106;7.164;2023-01-10T00:39:35;10.30;1.00
21193;DHT22;10754;51.106;7.164;2023-01-10T00:42:00;10.00;1.00
21193;DHT22;10754;51.106;7.164;2023-01-10T00:44:44;10.10;1.00
21193;DHT22;10754;51.106;7.164;2023-01-10T00:47:12;10.20;1.00
21193;DHT22;10754;51.106;7.164;2023-01-10T00:49:37;10.20;1.00
21193;DHT22;10754;51.106;7.164;2023-01-10T00:52:03;10.20;1.00
21193;DHT22;10754;51.106;7.164;2023-01-10T00:54:29;10.20;1.00
21193;DHT22;10754;51.106;7.164;2023-01-10T00:56:55;10.20;1.00
21193;DHT22;10754;51.106;7.164;2023-01-10T00:59:21;10.10;1.00
21193;DHT22;10754;51.106;7.164;2023-01-10T01:01:47;10.20;1.00
21193;DHT22;10754;51.106;7.164;2023-01-10T01:04:12;10.20;1.00
21193;DHT22;10754;51.106;7.164;2023-01-10T01:06:38;10.30;1.00
21193;DHT22;10754;51.106;7.164;2023-01-10T01:09:03;10.20;1.00
21193;DHT22;10754;51.106;7.164;2023-01-10T01:11:29;10.20;1.00
21193;DHT22;10754;51.106;7.164;2023-01-10T01:13:55;10.10;1.00
21193;DHT22;10754;51.106;7.164;2023-01-10T01:16:20;10.00;1.00
21193;DHT22;10754;51.106;7.164;2023-01-10T01:18:46;9.90;1.00
21193;DHT22;10754;51.106;7.164;2023-01-10T01:21:12;9.90;1.00
21193;DHT22;10754;51.106;7.164;2023-01-10T01:23:38;9.90;1.00
21193;DHT22;10754;51.106;7.164;2023-01-10T01:26:03;9.90;1.00
21193;DHT22;10754;51.106;7.164;2023-01-10T01:28:30;10.00;1.00
21193;DHT22;10754;51.106;7.164;2023-01-10T01:30:56;10.00;1.00
21193;DHT22;10754;51.106;7.164;2023-01-10T01:33:22;10.00;1.00
21193;DHT22;10754;51.106;7.164;2023-01-10T01:35:48;10.10;1.00
21193;DHT22;10754;51.106;7.164;2023-01-10T01:38:15;10.10;1.00
21193;DHT22;10754;51.106;7.164;2023-01-10T01:40:41;10.00;1.00
21193;DHT22;10754;51.106;7.164;2023-01-10T01:43:24;10.10;1.00
21193;DHT22;10754;51.106;7.164;2023-01-10T01:45:51;10.00;1.00
21193;DHT22;10754;51.106;7.164;2023-01-10T01:48:36;10.00;1.00
21193;DHT22;10754;51.106;7.164;2023-01-10T01:51:08;10.10;1.00
21193;DHT22;10754;51.106;7.164;2023-01-10T01:53:43;10.00;1.00
21193;DHT22;10754;51.106;7.164;2023-01-10T01:56:25;9.90;1.00
21193;DHT22;10754;51.106;7.164;2023-01-10T01:58:59;9.90;1.00
21193;DHT22;10754;51.106;7.164;2023-01-10T02:01:27;9.90;1.00
21193;DHT22;10754;51.106;7.164;2023-01-10T02:04:05;9.90;1.00
21193;DHT22;10754;51.106;7.164;2023-01-10T02:06:32;10.00;1.00
21193;DHT22;10754;51.106;7.164;2023-01-10T02:09:10;10.10;1.00
21193;DHT22;10754;51.106;7.164;2023-01-10T02:11:37;10.00;1.00
21193;DHT22;10754;51.106;7.164;2023-01-10T02:14:04;9.90;1.00
21193;DHT22;10754;51.106;7.164;2023-01-10T02:16:30;10.10;1.00
21193;DHT22;10754;51.106;7.164;2023-01-10T02:18:56;10.20;1.00
21193;DHT22;10754;51.106;7.164;2023-01-10T02:22:11;10.10;1.00
21193;DHT22;10754;51.106;7.164;2023-01-10T02:33:25;9.90;1.00
21193;DHT22;10754;51.106;7.164;2023-01-10T02:36:01;9.80;1.00
21193;DHT22;10754;51.106;7.164;2023-01-10T02:39:01;9.70;1.00
21193;DHT22;10754;51.106;7.164;2023-01-10T02:41:44;9.80;1.00
21193;DHT22;10754;51.106;7.164;2023-01-10T02:47:03;9.80;1.00
21193;DHT22;10754;51.106;7.164;2023-01-10T02:49:28;9.60;1.00
21193;DHT22;10754;51.106;7.164;2023-01-10T02:51:54;9.70;1.00
21193;DHT22;10754;51.106;7.164;2023-01-10T02:54:26;9.60;1.00
21193;DHT22;10754;51.106;7.164;2023-01-10T03:02:48;9.70;1.00
21193;DHT22;10754;51.106;7.164;2023-01-10T03:08:17;9.90;1.00
21193;DHT22;10754;51.106;7.164;2023-01-10T03:10:55;9.80;1.00
21193;DHT22;10754;51.106;7.164;2023-01-10T03:15:52;10.00;1.00
21193;DHT22;10754;51.106;7.164;2023-01-10T03:18:22;9.90;1.00
21193;DHT22;10754;51.106;7.164;2023-01-10T03:20:50;9.80;1.00
21193;DHT22;10754;51.106;7.164;2023-01-10T03:23:18;9.90;1.00
21193;DHT22;10754;51.106;7.164;2023-01-10T03:25:45;9.90;1.00
21193;DHT22;10754;51.106;7.164;2023-01-10T03:28:19;9.60;1.00
21193;DHT22;10754;51.106;7.164;2023-01-10T03:30:56;9.80;1.00
21193;DHT22;10754;51.106;7.164;2023-01-10T03:33:27;10.00;1.00
21193;DHT22;10754;51.106;7.164;2023-01-10T03:36:19;10.00;1.00
21193;DHT22;10754;51.106;7.164;2023-01-10T03:41:40;9.70;1.00
21193;DHT22;10754;51.106;7.164;2023-01-10T03:44:18;9.80;1.00
21193;DHT22;10754;51.106;7.164;2023-01-10T03:49:58;9.90;1.00
21193;DHT22;10754;51.106;7.164;2023-01-10T03:52:26;9.80;1.00
21193;DHT22;10754;51.106;7.164;2023-01-10T03:54:51;9.90;1.00
21193;DHT22;10754;51.106;7.164;2023-01-10T03:57:21;9.80;1.00
21193;DHT22;10754;51.106;7.164;2023-01-10T03:59:51;9.70;1.00
21193;DHT22;10754;51.106;7.164;2023-01-10T04:02:17;9.60;1.00
21193;DHT22;10754;51.106;7.164;2023-01-10T04:04:43;9.70;1.00
21193;DHT22;10754;51.106;7.164;2023-01-10T04:07:08;10.00;1.00
21193;DHT22;10754;51.106;7.164;2023-01-10T04:09:34;9.70;1.00
21193;DHT22;10754;51.106;7.164;2023-01-10T04:11:59;9.80;1.00
21193;DHT22;10754;51.106;7.164;2023-01-10T04:14:25;9.70;1.00
21193;DHT22;10754;51.106;7.164;2023-01-10T04:16:52;9.60;1.00
21193;DHT22;10754;51.106;7.164;2023-01-10T04:19:17;9.60;1.00
21193;DHT22;10754;51.106;7.164;2023-01-10T04:21:43;9.80;1.00
21193;DHT22;10754;51.106;7.164;2023-01-10T04:24:08;9.70;1.00
21193;DHT22;10754;51.106;7.164;2023-01-10T04:26:34;9.40;1.00
21193;DHT22;10754;51.106;7.164;2023-01-10T04:28:59;9.50;1.00
21193;DHT22;10754;51.106;7.164;2023-01-10T04:31:25;9.50;1.00
21193;DHT22;10754;51.106;7.164;2023-01-10T04:33:51;9.50;1.00
21193;DHT22;10754;51.106;7.164;2023-01-10T04:36:17;9.50;1.00
21193;DHT22;10754;51.106;7.164;2023-01-10T04:38:42;9.50;1.00
21193;DHT22;10754;51.106;7.164;2023-01-10T04:41:08;9.80;1.00
21193;DHT22;10754;51.106;7.164;2023-01-10T04:43:33;9.80;1.00
21193;DHT22;10754;51.106;7.164;2023-01-10T04:45:59;9.80;1.00
21193;DHT22;10754;51.106;7.164;2023-01-10T04:48:25;9.90;1.00
21193;DHT22;10754;51.106;7.164;2023-01-10T04:50:52;9.90;1.00
21193;DHT22;10754;51.106;7.164;2023-01-10T04:53:18;9.90;1.00
21193;DHT22;10754;51.106;7.164;2023-01-10T04:55:44;9.90;1.00
21193;DHT22;10754;51.106;7.164;2023-01-10T04:58:10;10.20;1.00
21193;DHT22;10754;51.106;7.164;2023-01-10T05:00:35;9.90;1.00
21193;DHT22;10754;51.106;7.164;2023-01-10T05:03:00;10.00;1.00
21193;DHT22;10754;51.106;7.164;2023-01-10T05:05:26;10.00;1.00
21193;DHT22;10754;51.106;7.164;2023-01-10T05:07:52;10.00;1.00
21193;DHT22;10754;51.106;7.164;2023-01-10T05:10:18;9.90;1.00
21193;DHT22;10754;51.106;7.164;2023-01-10T05:12:45;9.70;1.00
21193;DHT22;10754;51.106;7.164;2023-01-10T05:15:11;9.90;1.00
21193;DHT22;10754;51.106;7.164;2023-01-10T05:17:36;9.80;1.00
21193;DHT22;10754;51.106;7.164;2023-01-10T05:20:02;9.50;1.00
21193;DHT22;10754;51.106;7.164;2023-01-10T05:22:28;9.50;1.00
21193;DHT22;10754;51.106;7.164;2023-01-10T05:24:53;9.50;1.00
21193;DHT22;10754;51.106;7.164;2023-01-10T05:27:19;9.70;1.00
21193;DHT22;10754;51.106;7.164;2023-01-10T05:29:44;9.60;1.00
21193;DHT22;10754;51.106;7.164;2023-01-10T05:32:10;9.50;1.00
21193;DHT22;10754;51.106;7.164;2023-01-10T05:34:36;9.50;1.00
21193;DHT22;10754;51.106;7.164;2023-01-10T05:37:01;9.50;1.00
21193;DHT22;10754;51.106;7.164;2023-01-10T05:39:27;9.50;1.00
21193;DHT22;10754;51.106;7.164;2023-01-10T05:41:52;9.50;1.00
21193;DHT22;10754;51.106;7.164;2023-01-10T05:44:18;9.30;1.00
21193;DHT22;10754;51.106;7.164;2023-01-10T05:46:43;9.50;1.00
21193;DHT22;10754;51.106;7.164;2023-01-10T05:49:09;9.40;1.00
21193;DHT22;10754;51.106;7.164;2023-01-10T05:51:34;9.70;1.00
21193;DHT22;10754;51.106;7.164;2023-01-10T05:54:00;9.70;1.00
21193;DHT22;10754;51.106;7.164;2023-01-10T05:56:25;9.90;1.00
21193;DHT22;10754;51.106;7.164;2023-01-10T05:58:51;9.90;1.00
21193;DHT22;10754;51.106;7.164;2023-01-10T06:01:16;9.70;1.00
21193;DHT22;10754;51.106;7.164;2023-01-10T06:03:42;9.60;1.00
21193;DHT22;10754;51.106;7.164;2023-01-10T06:06:08;9.50;1.00
21193;DHT22;10754;51.106;7.164;2023-01-10T06:08:33;9.50;1.00
21193;DHT22;10754;51.106;7.164;2023-01-10T06:11:04;9.60;1.00
21193;DHT22;10754;51.106;7.164;2023-01-10T06:13:30;9.50;1.00
21193;DHT22;10754;51.106;7.164;2023-01-10T06:15:56;9.50;1.00
21193;DHT22;10754;51.106;7.164;2023-01-10T06:18:21;9.70;1.00
21193;DHT22;10754;51.106;7.164;2023-01-10T06:20:47;9.50;1.00
21193;DHT22;10754;51.106;7.164;2023-01-10T06:23:12;9.50;1.00
21193;DHT22;10754;51.106;7.164;2023-01-10T06:25:38;9.60;1.00
21193;DHT22;10754;51.106;7.164;2023-01-10T06:28:12;9.80;1.00
21193;DHT22;10754;51.106;7.164;2023-01-10T06:30:39;10.00;1.00
21193;DHT22;10754;51.106;7.164;2023-01-10T06:33:07;9.80;1.00
21193;DHT22;10754;51.106;7.164;2023-01-10T06:35:33;9.70;1.00
21193;DHT22;10754;51.106;7.164;2023-01-10T06:37:58;9.30;1.00
21193;DHT22;10754;51.106;7.164;2023-01-10T06:40:24;9.80;1.00
21193;DHT22;10754;51.106;7.164;2023-01-10T06:42:50;9.80;1.00
21193;DHT22;10754;51.106;7.164;2023-01-10T06:45:16;9.80;1.00
21193;DHT22;10754;51.106;7.164;2023-01-10T06:47:41;9.50;1.00
21193;DHT22;10754;51.106;7.164;2023-01-10T06:50:08;9.40;1.00
21193;DHT22;10754;51.106;7.164;2023-01-10T06:52:33;9.50;1.00
21193;DHT22;10754;51.106;7.164;2023-01-10T06:54:59;9.70;1.00
21193;DHT22;10754;51.106;7.164;2023-01-10T06:57:25;9.30;1.00
21193;DHT22;10754;51.106;7.164;2023-01-10T06:59:52;9.70;1.00
21193;DHT22;10754;51.106;7.164;2023-01-10T07:02:18;9.70;1.00
21193;DHT22;10754;51.106;7.164;2023-01-10T07:04:43;9.60;1.00
21193;DHT22;10754;51.106;7.164;2023-01-10T07:07:09;10.00;1.00
21193;DHT22;10754;51.106;7.164;2023-01-10T07:09:34;9.80;1.00
21193;DHT22;10754;51.106;7.164;2023-01-10T07:12:00;9.50;1.00
21193;DHT22;10754;51.106;7.164;2023-01-10T07:14:25;9.40;1.00
21193;DHT22;10754;51.106;7.164;2023-01-10T07:16:51;9.50;1.00
21193;DHT22;10754;51.106;7.164;2023-01-10T07:19:16;9.50;1.00
21193;DHT22;10754;51.106;7.164;2023-01-10T07:21:44;9.50;1.00
21193;DHT22;10754;51.106;7.164;2023-01-10T07:24:09;9.50;1.00
21193;DHT22;10754;51.106;7.164;2023-01-10T07:26:35;9.40;1.00
21193;DHT22;10754;51.106;7.164;2023-01-10T07:29:00;9.30;1.00
21193;DHT22;10754;51.106;7.164;2023-01-10T07:31:26;9.40;1.00
21193;DHT22;10754;51.106;7.164;2023-01-10T07:33:52;9.40;1.00
21193;DHT22;10754;51.106;7.164;2023-01-10T07:36:18;9.60;1.00
21193;DHT22;10754;51.106;7.164;2023-01-10T07:38:44;9.40;1.00
21193;DHT22;10754;51.106;7.164;2023-01-10T07:41:09;9.40;1.00
21193;DHT22;10754;51.106;7.164;2023-01-10T07:43:35;9.60;1.00
21193;DHT22;10754;51.106;7.164;2023-01-10T07:46:03;9.40;1.00
21193;DHT22;10754;51.106;7.164;2023-01-10T07:48:29;9.80;1.00
21193;DHT22;10754;51.106;7.164;2023-01-10T07:50:56;9.70;1.00
21193;DHT22;10754;51.106;7.164;2023-01-10T07:53:21;9.60;1.00
21193;DHT22;10754;51.106;7.164;2023-01-10T07:55:47;9.50;1.00
21193;DHT22;10754;51.106;7.164;2023-01-10T07:58:12;9.50;1.00
21193;DHT22;10754;51.106;7.164;2023-01-10T08:00:38;9.50;1.00
21193;DHT22;10754;51.106;7.164;2023-01-10T08:03:04;9.70;1.00
21193;DHT22;10754;51.106;7.164;2023-01-10T08:05:31;9.50;1.00
21193;DHT22;10754;51.106;7.164;2023-01-10T08:07:56;9.30;1.00
21193;DHT22;10754;51.106;7.164;2023-01-10T08:10:27;9.50;1.00
21193;DHT22;10754;51.106;7.164;2023-01-10T08:12:53;9.60;1.00
21193;DHT22;10754;51.106;7.164;2023-01-10T08:15:18;9.80;1.00
21193;DHT22;10754;51.106;7.164;2023-01-10T08:17:44;9.80;1.00
21193;DHT22;10754;51.106;7.164;2023-01-10T08:20:10;9.70;1.00
21193;DHT22;10754;51.106;7.164;2023-01-10T08:22:35;9.90;1.00
21193;DHT22;10754;51.106;7.164;2023-01-10T08:25:01;9.70;1.00
21193;DHT22;10754;51.106;7.164;2023-01-10T08:27:26;9.50;1.00
21193;DHT22;10754;51.106;7.164;2023-01-10T08:29:52;9.50;1.00
21193;DHT22;10754;51.106;7.164;2023-01-10T08:32:17;9.70;1.00
21193;DHT22;10754;51.106;7.164;2023-01-10T08:34:43;9.70;1.00
21193;DHT22;10754;51.106;7.164;2023-01-10T08:37:12;9.80;1.00
21193;DHT22;10754;51.106;7.164;2023-01-10T08:39:38;9.70;1.00
21193;DHT22;10754;51.106;7.164;2023-01-10T08:42:04;9.90;1.00
21193;DHT22;10754;51.106;7.164;2023-01-10T08:44:30;9.70;1.00
21193;DHT22;10754;51.106;7.164;2023-01-10T08:46:55;9.60;1.00
21193;DHT22;10754;51.106;7.164;2023-01-10T08:49:21;9.90;1.00
21193;DHT22;10754;51.106;7.164;2023-01-10T08:51:47;10.10;1.00
21193;DHT22;10754;51.106;7.164;2023-01-10T08:54:12;9.90;1.00
21193;DHT22;10754;51.106;7.164;2023-01-10T08:56:38;9.70;1.00
21193;DHT22;10754;51.106;7.164;2023-01-10T08:59:04;9.70;1.00
21193;DHT22;10754;51.106;7.164;2023-01-10T09:01:30;9.70;1.00
21193;DHT22;10754;51.106;7.164;2023-01-10T09:03:56;9.80;1.00
21193;DHT22;10754;51.106;7.164;2023-01-10T09:06:21;9.90;1.00
21193;DHT22;10754;51.106;7.164;2023-01-10T09:08:48;9.80;1.00
21193;DHT22;10754;51.106;7.164;2023-01-10T09:11:14;10.00;1.00
21193;DHT22;10754;51.106;7.164;2023-01-10T09:13:39;10.00;1.00
21193;DHT22;10754;51.106;7.164;2023-01-10T09:16:06;9.60;1.00
21193;DHT22;10754;51.106;7.164;2023-01-10T09:18:32;9.80;1.00
21193;DHT22;10754;51.106;7.164;2023-01-10T09:20:58;9.90;1.00
21193;DHT22;10754;51.106;7.164;2023-01-10T09:23:24;9.80;1.00
21193;DHT22;10754;51.106;7.164;2023-01-10T09:25:52;10.00;1.00
21193;DHT22;10754;51.106;7.164;2023-01-10T09:28:19;10.10;1.00
21193;DHT22;10754;51.106;7.164;2023-01-10T09:30:45;10.30;1.00
21193;DHT22;10754;51.106;7.164;2023-01-10T09:33:11;10.40;1.00
21193;DHT22;10754;51.106;7.164;2023-01-10T09:35:38;10.40;1.00
21193;DHT22;10754;51.106;7.164;2023-01-10T09:38:06;10.50;1.00
21193;DHT22;10754;51.106;7.164;2023-01-10T09:43:35;10.30;1.00
21193;DHT22;10754;51.106;7.164;2023-01-10T09:51:49;10.80;1.00
21193;DHT22;10754;51.106;7.164;2023-01-10T09:54:32;10.70;1.00
21193;DHT22;10754;51.106;7.164;2023-01-10T09:57:00;10.90;1.00
21193;DHT22;10754;51.106;7.164;2023-01-10T09:59:35;10.90;1.00
21193;DHT22;10754;51.106;7.164;2023-01-10T10:02:31;11.00;1.00
21193;DHT22;10754;51.106;7.164;2023-01-10T10:07:28;11.20;1.00
21193;DHT22;10754;51.106;7.164;2023-01-10T10:09:54;11.30;1.00
21193;DHT22;10754;51.106;7.164;2023-01-10T10:15:30;11.60;1.00
21193;DHT22;10754;51.106;7.164;2023-01-10T10:18:19;11.60;1.00
21193;DHT22;10754;51.106;7.164;2023-01-10T10:24:28;12.00;1.00
21193;DHT22;10754;51.106;7.164;2023-01-10T10:26:58;12.10;1.00
21193;DHT22;10754;51.106;7.164;2023-01-10T10:34:59;12.40;1.00
21193;DHT22;10754;51.106;7.164;2023-01-10T10:37:30;12.50;1.00
21193;DHT22;10754;51.106;7.164;2023-01-10T10:40:10;12.60;1.00
21193;DHT22;10754;51.106;7.164;2023-01-10T10:42:47;12.60;1.00
21193;DHT22;10754;51.106;7.164;2023-01-10T10:45:37;12.70;1.00
21193;DHT22;10754;51.106;7.164;2023-01-10T10:48:24;12.80;1.00
21193;DHT22;10754;51.106;7.164;2023-01-10T10:51:17;13.00;1.00
21193;DHT22;10754;51.106;7.164;2023-01-10T10:53:45;13.20;1.00
21193;DHT22;10754;51.106;7.164;2023-01-10T10:56:15;13.30;1.00
21193;DHT22;10754;51.106;7.164;2023-01-10T10:58:44;13.30;1.00
21193;DHT22;10754;51.106;7.164;2023-01-10T11:01:13;13.50;1.00
21193;DHT22;10754;51.106;7.164;2023-01-10T11:03:43;13.60;1.00
21193;DHT22;10754;51.106;7.164;2023-01-10T11:06:12;13.70;1.00
21193;DHT22;10754;51.106;7.164;2023-01-10T11:08:41;13.50;1.00
21193;DHT22;10754;51.106;7.164;2023-01-10T11:11:26;13.40;1.00
21193;DHT22;10754;51.106;7.164;2023-01-10T11:13:58;13.40;1.00
21193;DHT22;10754;51.106;7.164;2023-01-10T11:16:29;13.30;1.00
21193;DHT22;10754;51.106;7.164;2023-01-10T11:21:49;13.20;1.00
21193;DHT22;10754;51.106;7.164;2023-01-10T11:24:29;13.10;1.00
21193;DHT22;10754;51.106;7.164;2023-01-10T11:26:58;13.10;1.00
21193;DHT22;10754;51.106;7.164;2023-01-10T11:29:38;13.10;1.00
21193;DHT22;10754;51.106;7.164;2023-01-10T11:32:16;13.20;1.00
21193;DHT22;10754;51.106;7.164;2023-01-10T11:34:49;13.20;1.00
21193;DHT22;10754;51.106;7.164;2023-01-10T11:37:29;12.90;1.00
21193;DHT22;10754;51.106;7.164;2023-01-10T11:42:41;12.70;1.00
21193;DHT22;10754;51.106;7.164;2023-01-10T11:47:49;12.60;1.00
21193;DHT22;10754;51.106;7.164;2023-01-10T11:50:20;12.60;1.00
21193;DHT22;10754;51.106;7.164;2023-01-10T11:52:47;12.50;1.00
21193;DHT22;10754;51.106;7.164;2023-01-10T11:55:35;12.70;1.00
21193;DHT22;10754;51.106;7.164;2023-01-10T11:58:11;12.70;1.00
21193;DHT22;10754;51.106;7.164;2023-01-10T12:03:16;12.60;1.00
21193;DHT22;10754;51.106;7.164;2023-01-10T12:05:58;12.50;1.00
21193;DHT22;10754;51.106;7.164;2023-01-10T12:08:29;12.60;1.00
21193;DHT22;10754;51.106;7.164;2023-01-10T12:10:58;12.60;1.00
21193;DHT22;10754;51.106;7.164;2023-01-10T12:13:26;12.50;1.00
21193;DHT22;10754;51.106;7.164;2023-01-10T12:18:55;12.50;1.00
21193;DHT22;10754;51.106;7.164;2023-01-10T12:21:42;12.30;1.00
21193;DHT22;10754;51.106;7.164;2023-01-10T12:26:43;12.50;1.00
21193;DHT22;10754;51.106;7.164;2023-01-10T12:29:16;12.40;1.00
21193;DHT22;10754;51.106;7.164;2023-01-10T12:31:43;12.40;1.00
21193;DHT22;10754;51.106;7.164;2023-01-10T12:34:15;12.40;1.00
21193;DHT22;10754;51.106;7.164;2023-01-10T12:39:25;12.20;1.00
21193;DHT22;10754;51.106;7.164;2023-01-10T12:50:45;12.10;1.00
21193;DHT22;10754;51.106;7.164;2023-01-10T12:53:29;12.00;1.00
21193;DHT22;10754;51.106;7.164;2023-01-10T12:55:57;12.00;1.00
21193;DHT22;10754;51.106;7.164;2023-01-10T12:58:35;12.00;1.00
21193;DHT22;10754;51.106;7.164;2023-01-10T13:01:03;12.10;1.00
21193;DHT22;10754;51.106;7.164;2023-01-10T13:03:31;12.20;1.00
21193;DHT22;10754;51.106;7.164;2023-01-10T13:05:58;12.10;1.00
21193;DHT22;10754;51.106;7.164;2023-01-10T13:08:31;12.00;1.00
21193;DHT22;10754;51.106;7.164;2023-01-10T13:10:58;11.90;1.00
21193;DHT22;10754;51.106;7.164;2023-01-10T13:13:31;11.80;1.00
21193;DHT22;10754;51.106;7.164;2023-01-10T13:18:30;11.70;1.00
21193;DHT22;10754;51.106;7.164;2023-01-10T13:21:04;11.80;1.00
21193;DHT22;10754;51.106;7.164;2023-01-10T13:23:34;11.90;1.00
21193;DHT22;10754;51.106;7.164;2023-01-10T13:26:05;11.90;1.00
21193;DHT22;10754;51.106;7.164;2023-01-10T13:28:35;11.80;1.00
21193;DHT22;10754;51.106;7.164;2023-01-10T13:31:04;11.90;1.00
21193;DHT22;10754;51.106;7.164;2023-01-10T13:33:34;11.80;1.00
21193;DHT22;10754;51.106;7.164;2023-01-10T13:36:26;11.80;1.00
21193;DHT22;10754;51.106;7.164;2023-01-10T13:38:57;11.50;1.00
21193;DHT22;10754;51.106;7.164;2023-01-10T13:56:26;11.50;1.00
21193;DHT22;10754;51.106;7.164;2023-01-10T14:01:32;11.70;1.00
21193;DHT22;10754;51.106;7.164;2023-01-10T14:04:23;11.60;1.00
21193;DHT22;10754;51.106;7.164;2023-01-10T14:07:00;11.70;1.00
21193;DHT22;10754;51.106;7.164;2023-01-10T14:09:31;11.40;1.00
21193;DHT22;10754;51.106;7.164;2023-01-10T14:12:01;11.40;1.00
21193;DHT22;10754;51.106;7.164;2023-01-10T14:14:30;11.30;1.00
21193;DHT22;10754;51.106;7.164;2023-01-10T14:17:08;11.50;1.00
21193;DHT22;10754;51.106;7.164;2023-01-10T14:19:34;11.30;1.00
21193;DHT22;10754;51.106;7.164;2023-01-10T14:22:01;11.30;1.00
21193;DHT22;10754;51.106;7.164;2023-01-10T14:24:30;11.20;1.00
21193;DHT22;10754;51.106;7.164;2023-01-10T14:26:59;11.10;1.00
21193;DHT22;10754;51.106;7.164;2023-01-10T14:29:29;11.30;1.00
21193;DHT22;10754;51.106;7.164;2023-01-10T14:31:57;11.10;1.00
21193;DHT22;10754;51.106;7.164;2023-01-10T14:34:33;11.30;1.00
21193;DHT22;10754;51.106;7.164;2023-01-10T14:37:06;11.20;1.00
21193;DHT22;10754;51.106;7.164;2023-01-10T14:39:34;11.20;1.00
21193;DHT22;10754;51.106;7.164;2023-01-10T14:42:06;11.30;1.00
21193;DHT22;10754;51.106;7.164;2023-01-10T14:44:48;11.10;1.00
21193;DHT22;10754;51.106;7.164;2023-01-10T14:47:41;11.20;1.00
21193;DHT22;10754;51.106;7.164;2023-01-10T14:50:25;11.10;1.00
21193;DHT22;10754;51.106;7.164;2023-01-10T14:52:55;11.10;1.00
21193;DHT22;10754;51.106;7.164;2023-01-10T14:55:21;11.00;1.00
21193;DHT22;10754;51.106;7.164;2023-01-10T14:58:00;11.00;1.00
21193;DHT22;10754;51.106;7.164;2023-01-10T15:00:33;10.90;1.00
21193;DHT22;10754;51.106;7.164;2023-01-10T15:03:01;11.10;1.00
21193;DHT22;10754;51.106;7.164;2023-01-10T15:05:33;11.00;1.00
21193;DHT22;10754;51.106;7.164;2023-01-10T15:08:23;10.80;1.00
21193;DHT22;10754;51.106;7.164;2023-01-10T15:10:52;10.90;1.00
21193;DHT22;10754;51.106;7.164;2023-01-10T15:13:21;11.00;1.00
21193;DHT22;10754;51.106;7.164;2023-01-10T15:15:49;10.90;1.00
21193;DHT22;10754;51.106;7.164;2023-01-10T15:21:00;10.80;1.00
21193;DHT22;10754;51.106;7.164;2023-01-10T15:23:37;10.80;1.00
21193;DHT22;10754;51.106;7.164;2023-01-10T15:26:06;10.80;1.00
21193;DHT22;10754;51.106;7.164;2023-01-10T15:28:35;10.80;1.00
21193;DHT22;10754;51.106;7.164;2023-01-10T15:31:03;10.70;1.00
21193;DHT22;10754;51.106;7.164;2023-01-10T15:33:30;10.70;1.00
21193;DHT22;10754;51.106;7.164;2023-01-10T15:36:11;10.80;1.00
21193;DHT22;10754;51.106;7.164;2023-01-10T15:38:42;10.80;1.00
21193;DHT22;10754;51.106;7.164;2023-01-10T15:41:09;10.80;1.00
21193;DHT22;10754;51.106;7.164;2023-01-10T15:43:40;10.80;1.00
21193;DHT22;10754;51.106;7.164;2023-01-10T15:46:17;10.70;1.00
21193;DHT22;10754;51.106;7.164;2023-01-10T15:48:56;10.70;1.00
21193;DHT22;10754;51.106;7.164;2023-01-10T15:51:33;10.70;1.00
21193;DHT22;10754;51.106;7.164;2023-01-10T15:54:02;10.60;1.00
21193;DHT22;10754;51.106;7.164;2023-01-10T15:56:39;10.70;1.00
21193;DHT22;10754;51.106;7.164;2023-01-10T15:59:29;10.60;1.00
21193;DHT22;10754;51.106;7.164;2023-01-10T16:02:21;10.70;1.00
21193;DHT22;10754;51.106;7.164;2023-01-10T16:04:48;10.60;1.00
21193;DHT22;10754;51.106;7.164;2023-01-10T16:07:32;10.60;1.00
21193;DHT22;10754;51.106;7.164;2023-01-10T16:10:05;10.60;1.00
21193;DHT22;10754;51.106;7.164;2023-01-10T16:12:34;10.70;1.00
21193;DHT22;10754;51.106;7.164;2023-01-10T16:15:25;10.70;1.00
21193;DHT22;10754;51.106;7.164;2023-01-10T16:17:51;10.40;1.00
21193;DHT22;10754;51.106;7.164;2023-01-10T16:20:22;10.50;1.00
21193;DHT22;10754;51.106;7.164;2023-01-10T16:22:50;10.60;1.00
21193;DHT22;10754;51.106;7.164;2023-01-10T16:25:21;10.60;1.00
21193;DHT22;10754;51.106;7.164;2023-01-10T16:27:47;10.50;1.00
21193;DHT22;10754;51.106;7.164;2023-01-10T16:30:20;10.50;1.00
21193;DHT22;10754;51.106;7.164;2023-01-10T16:32:47;10.30;1.00
21193;DHT22;10754;51.106;7.164;2023-01-10T16:35:13;10.40;1.00
21193;DHT22;10754;51.106;7.164;2023-01-10T16:37:41;10.30;1.00
21193;DHT22;10754;51.106;7.164;2023-01-10T16:40:20;10.30;1.00
21193;DHT22;10754;51.106;7.164;2023-01-10T16:42:46;10.30;1.00
21193;DHT22;10754;51.106;7.164;2023-01-10T16:45:30;10.30;1.00
21193;DHT22;10754;51.106;7.164;2023-01-10T16:47:56;10.20;1.00
21193;DHT22;10754;51.106;7.164;2023-01-10T16:50:21;10.10;1.00
21193;DHT22;10754;51.106;7.164;2023-01-10T16:52:47;10.10;1.00
21193;DHT22;10754;51.106;7.164;2023-01-10T16:55:17;10.00;1.00
21193;DHT22;10754;51.106;7.164;2023-01-10T16:57:44;10.00;1.00
21193;DHT22;10754;51.106;7.164;2023-01-10T17:00:12;9.90;1.00
21193;DHT22;10754;51.106;7.164;2023-01-10T17:02:38;9.90;1.00
21193;DHT22;10754;51.106;7.164;2023-01-10T17:05:04;9.90;1.00
21193;DHT22;10754;51.106;7.164;2023-01-10T17:07:30;9.90;1.00
21193;DHT22;10754;51.106;7.164;2023-01-10T17:09:55;10.10;1.00
21193;DHT22;10754;51.106;7.164;2023-01-10T17:12:29;9.90;1.00
21193;DHT22;10754;51.106;7.164;2023-01-10T17:14:56;9.90;1.00
21193;DHT22;10754;51.106;7.164;2023-01-10T17:17:21;9.90;1.00
21193;DHT22;10754;51.106;7.164;2023-01-10T17:19:47;9.90;1.00
21193;DHT22;10754;51.106;7.164;2023-01-10T17:22:13;9.90;1.00
21193;DHT22;10754;51.106;7.164;2023-01-10T17:24:38;9.90;1.00
21193;DHT22;10754;51.106;7.164;2023-01-10T17:27:04;9.80;1.00
21193;DHT22;10754;51.106;7.164;2023-01-10T17:29:30;9.70;1.00
21193;DHT22;10754;51.106;7.164;2023-01-10T17:31:57;9.80;1.00
21193;DHT22;10754;51.106;7.164;2023-01-10T17:34:22;9.80;1.00
21193;DHT22;10754;51.106;7.164;2023-01-10T17:36:48;9.80;1.00
21193;DHT22;10754;51.106;7.164;2023-01-10T17:39:13;9.70;1.00
21193;DHT22;10754;51.106;7.164;2023-01-10T17:41:39;9.80;1.00
21193;DHT22;10754;51.106;7.164;2023-01-10T17:44:04;9.80;1.00
21193;DHT22;10754;51.106;7.164;2023-01-10T17:46:30;9.70;1.00
21193;DHT22;10754;51.106;7.164;2023-01-10T17:48:55;9.70;1.00